createdAt,value
2023-05-22T00:00:07.819Z,4.28
2023-05-22T00:02:39.157Z,3.50
2023-05-22T00:05:07.085Z,3.95
2023-05-22T00:07:34.050Z,3.92
2023-05-22T00:10:01.067Z,3.42
2023-05-22T00:12:27.963Z,4.05
2023-05-22T00:15:02.915Z,3.63
2023-05-22T00:17:31.301Z,3.88
2023-05-22T00:20:07.420Z,3.22
2023-05-22T00:22:37.550Z,4.07
2023-05-22T00:25:05.762Z,3.63
2023-05-22T00:27:33.959Z,4.03
2023-05-22T00:30:01.517Z,3.95
2023-05-22T00:32:28.586Z,4.40
2023-05-22T00:34:55.518Z,4.53
2023-05-22T00:37:22.464Z,4.40
2023-05-22T00:39:51.232Z,3.72
2023-05-22T00:42:19.142Z,5.18
2023-05-22T00:44:46.219Z,4.18
2023-05-22T00:47:13.153Z,4.20
2023-05-22T00:49:41.117Z,3.85
2023-05-22T00:52:09.829Z,4.43
2023-05-22T00:54:37.248Z,4.45
2023-05-22T00:57:05.075Z,4.47
2023-05-22T00:59:32.150Z,4.28
2023-05-22T01:01:59.633Z,5.03
2023-05-22T01:04:26.629Z,4.75
2023-05-22T01:06:55.299Z,4.22
2023-05-22T01:09:22.158Z,4.28
2023-05-22T01:12:26.015Z,4.50
2023-05-22T01:14:58.717Z,4.25
2023-05-22T01:17:55.910Z,4.43
2023-05-22T01:20:32.692Z,4.85
2023-05-22T01:23:16.368Z,4.35
2023-05-22T01:26:04.239Z,4.68
2023-05-22T01:29:06.183Z,4.30
2023-05-22T01:31:40.039Z,4.32
2023-05-22T01:34:11.834Z,5.10
2023-05-22T01:36:39.649Z,4.70
2023-05-22T01:39:08.072Z,4.57
2023-05-22T01:41:35.688Z,4.28
2023-05-22T01:44:02.768Z,4.55
2023-05-22T01:46:30.865Z,4.60
2023-05-22T01:48:58.594Z,4.30
2023-05-22T01:51:56.146Z,3.97
2023-05-22T01:54:35.664Z,4.28
2023-05-22T01:57:53.611Z,4.55
2023-05-22T02:00:22.833Z,4.60
2023-05-22T02:02:55.255Z,4.80
2023-05-22T02:05:25.286Z,4.47
2023-05-22T02:07:54.458Z,4.25
2023-05-22T02:10:22.436Z,4.78
2023-05-22T02:12:49.627Z,4.63
2023-05-22T02:15:16.632Z,4.47
2023-05-22T02:17:44.620Z,3.60
2023-05-22T02:20:15.552Z,4.45
2023-05-22T02:22:44.759Z,3.63
2023-05-22T02:25:15.020Z,4.53
2023-05-22T02:27:46.974Z,4.07
2023-05-22T02:30:15.296Z,4.53
2023-05-22T02:32:42.701Z,4.95
2023-05-22T02:35:10.138Z,4.70
2023-05-22T02:37:38.247Z,4.47
2023-05-22T02:40:10.231Z,4.25
2023-05-22T02:42:37.210Z,4.20
2023-05-22T02:45:04.564Z,3.97
2023-05-22T02:47:31.445Z,4.70
2023-05-22T02:49:58.575Z,4.97
2023-05-22T02:52:25.818Z,4.97
2023-05-22T02:54:52.690Z,4.47
2023-05-22T02:57:19.568Z,4.45
2023-05-22T02:59:46.982Z,4.47
2023-05-22T03:02:15.526Z,4.60
2023-05-22T03:04:42.488Z,4.22
2023-05-22T03:07:09.399Z,4.45
2023-05-22T03:09:36.393Z,4.60
2023-05-22T03:12:05.140Z,4.93
2023-05-22T03:14:32.158Z,6.65
2023-05-22T03:16:59.184Z,6.78
2023-05-22T03:19:26.729Z,5.55
2023-05-22T03:21:53.855Z,4.65
2023-05-22T03:24:21.242Z,4.68
2023-05-22T03:26:48.131Z,5.07
2023-05-22T03:29:15.077Z,4.93
2023-05-22T03:31:42.006Z,4.72
2023-05-22T03:34:08.987Z,5.00
2023-05-22T03:36:36.078Z,4.95
2023-05-22T03:39:04.036Z,5.00
2023-05-22T03:41:31.076Z,6.07
2023-05-22T03:43:58.844Z,6.57
2023-05-22T03:46:25.980Z,5.18
2023-05-22T03:48:52.901Z,5.90
2023-05-22T03:51:20.511Z,5.80
2023-05-22T03:53:47.629Z,5.32
2023-05-22T03:56:14.564Z,5.28
2023-05-22T03:58:41.520Z,5.38
2023-05-22T04:01:10.188Z,5.07
2023-05-22T04:03:40.138Z,4.95
2023-05-22T04:06:07.848Z,4.65
2023-05-22T04:08:34.950Z,5.75
2023-05-22T04:11:03.289Z,5.30
2023-05-22T04:13:31.235Z,4.75
2023-05-22T04:15:58.689Z,4.50
2023-05-22T04:18:25.682Z,5.22
2023-05-22T04:20:52.673Z,5.70
2023-05-22T04:23:19.547Z,4.97
2023-05-22T04:25:48.248Z,4.97
2023-05-22T04:28:17.759Z,5.22
2023-05-22T04:30:45.128Z,4.88
2023-05-22T04:33:12.940Z,4.55
2023-05-22T04:35:41.041Z,5.47
2023-05-22T04:38:08.112Z,6.22
2023-05-22T04:40:35.010Z,5.35
2023-05-22T04:43:01.991Z,4.88
2023-05-22T04:45:29.229Z,6.00
2023-05-22T04:47:56.972Z,5.15
2023-05-22T04:50:24.262Z,5.38
2023-05-22T04:52:51.215Z,5.30
2023-05-22T04:55:19.441Z,5.03
2023-05-22T04:57:47.598Z,4.72
2023-05-22T05:00:17.249Z,5.47
2023-05-22T05:02:44.299Z,5.97
2023-05-22T05:05:11.320Z,5.18
2023-05-22T05:07:39.668Z,5.80
2023-05-22T05:10:07.744Z,5.30
2023-05-22T05:12:34.782Z,5.78
2023-05-22T05:15:02.014Z,5.63
2023-05-22T05:17:29.066Z,6.07
2023-05-22T05:19:56.229Z,5.05
2023-05-22T05:22:23.178Z,6.07
2023-05-22T05:24:50.118Z,5.13
2023-05-22T05:27:17.115Z,6.38
2023-05-22T05:29:44.065Z,6.18
2023-05-22T05:32:12.741Z,6.38
2023-05-22T05:34:39.727Z,5.97
2023-05-22T05:37:06.657Z,6.53
2023-05-22T05:39:33.704Z,5.90
2023-05-22T05:42:00.588Z,5.65
2023-05-22T05:44:27.544Z,6.95
2023-05-22T05:46:54.972Z,6.60
2023-05-22T05:49:22.499Z,6.00
2023-05-22T05:51:49.374Z,7.00
2023-05-22T05:54:16.247Z,7.25
2023-05-22T05:56:43.269Z,6.45
2023-05-22T05:59:10.150Z,7.22
2023-05-22T06:01:38.838Z,6.97
2023-05-22T06:04:05.984Z,7.38
2023-05-22T06:06:36.485Z,7.25
2023-05-22T06:09:06.425Z,7.07
2023-05-22T06:11:34.399Z,6.22
2023-05-22T06:14:05.263Z,6.97
2023-05-22T06:16:32.327Z,7.03
2023-05-22T06:19:00.237Z,8.25
2023-05-22T06:21:27.268Z,7.80
2023-05-22T06:23:54.143Z,7.38
2023-05-22T06:26:22.399Z,7.25
2023-05-22T06:28:49.303Z,7.60
2023-05-22T06:31:16.160Z,6.78
2023-05-22T06:33:43.686Z,8.50
2023-05-22T06:36:11.724Z,7.25
2023-05-22T06:38:39.483Z,7.60
2023-05-22T06:41:08.129Z,7.10
2023-05-22T06:43:35.060Z,6.90
2023-05-22T06:46:02.119Z,7.38
2023-05-22T06:48:29.089Z,7.50
2023-05-22T06:50:55.947Z,8.48
2023-05-22T06:53:24.085Z,7.68
2023-05-22T06:55:51.300Z,7.55
2023-05-22T06:58:18.883Z,6.85
2023-05-22T07:00:45.964Z,7.47
2023-05-22T07:03:12.940Z,6.45
2023-05-22T07:05:39.888Z,6.45
2023-05-22T07:08:08.579Z,7.22
2023-05-22T07:10:35.534Z,7.53
2023-05-22T07:13:02.656Z,7.53
2023-05-22T07:15:29.630Z,7.45
2023-05-22T07:17:56.685Z,7.75
2023-05-22T07:20:25.788Z,7.15
2023-05-22T07:22:52.765Z,7.13
2023-05-22T07:25:19.648Z,6.82
2023-05-22T07:27:46.620Z,7.30
2023-05-22T07:30:13.880Z,7.53
2023-05-22T07:32:40.957Z,6.82
2023-05-22T07:35:08.719Z,6.30
2023-05-22T07:37:36.203Z,7.55
2023-05-22T07:40:08.227Z,8.57
2023-05-22T07:42:35.209Z,6.72
2023-05-22T07:45:02.333Z,7.57
2023-05-22T07:47:29.269Z,6.80
2023-05-22T07:49:56.229Z,7.13
2023-05-22T07:52:24.011Z,7.57
2023-05-22T07:54:51.046Z,6.43
2023-05-22T07:57:17.954Z,6.57
2023-05-22T07:59:45.570Z,6.40
2023-05-22T08:02:12.555Z,7.20
2023-05-22T08:04:39.825Z,6.28
2023-05-22T08:07:06.926Z,6.40
2023-05-22T08:09:34.151Z,6.53
2023-05-22T08:12:01.401Z,6.85
2023-05-22T08:14:28.560Z,6.82
2023-05-22T08:16:57.214Z,6.28
2023-05-22T08:19:24.238Z,6.38
2023-05-22T08:21:53.160Z,7.13
2023-05-22T08:24:20.103Z,7.15
2023-05-22T08:26:46.985Z,6.55
2023-05-22T08:29:13.852Z,7.60
2023-05-22T08:31:40.872Z,7.90
2023-05-22T08:34:07.806Z,7.43
2023-05-22T08:36:35.713Z,7.78
2023-05-22T08:39:02.655Z,7.40
2023-05-22T08:41:30.412Z,7.57
2023-05-22T08:43:57.608Z,7.65
2023-05-22T08:46:29.426Z,6.88
2023-05-22T08:48:58.376Z,7.97
2023-05-22T08:51:29.575Z,6.97
2023-05-22T08:53:57.612Z,7.03
2023-05-22T08:56:26.057Z,6.68
2023-05-22T08:58:55.133Z,7.72
2023-05-22T09:01:23.004Z,7.25
2023-05-22T09:03:51.643Z,7.38
2023-05-22T09:06:18.790Z,6.72
2023-05-22T09:08:46.288Z,6.85
2023-05-22T09:11:13.464Z,6.85
2023-05-22T09:13:41.566Z,7.32
2023-05-22T09:16:13.509Z,7.00
2023-05-22T09:18:42.625Z,6.53
2023-05-22T09:21:25.534Z,6.57
2023-05-22T09:24:01.756Z,5.85
2023-05-22T09:26:33.152Z,7.15
2023-05-22T09:29:01.278Z,6.18
2023-05-22T09:31:31.917Z,6.03
2023-05-22T09:33:59.938Z,6.15
2023-05-22T09:36:33.490Z,5.70
2023-05-22T09:39:02.582Z,6.25
2023-05-22T09:41:34.229Z,5.75
2023-05-22T09:44:02.042Z,5.07
2023-05-22T09:46:29.955Z,5.32
2023-05-22T09:48:57.183Z,5.00
2023-05-22T09:51:24.135Z,4.85
2023-05-22T09:53:53.646Z,5.10
2023-05-22T09:56:31.213Z,4.70
2023-05-22T09:59:09.913Z,5.40
2023-05-22T10:01:39.751Z,5.22
2023-05-22T10:04:13.224Z,5.57
2023-05-22T10:06:41.183Z,5.78
2023-05-22T10:09:11.238Z,5.97
2023-05-22T10:11:38.467Z,6.00
2023-05-22T10:14:05.771Z,5.80
2023-05-22T10:16:38.445Z,6.25
2023-05-22T10:21:37.115Z,6.03
2023-05-22T10:24:05.646Z,5.70
2023-05-22T10:26:33.263Z,5.05
2023-05-22T10:29:12.445Z,5.60
2023-05-22T10:32:09.325Z,5.63
2023-05-22T10:34:56.766Z,5.55
2023-05-22T10:37:55.714Z,5.45
2023-05-22T10:40:30.591Z,5.53
2023-05-22T10:43:04.254Z,5.78
2023-05-22T10:45:32.069Z,5.90
2023-05-22T10:48:09.701Z,5.40
2023-05-22T10:50:36.758Z,5.40
2023-05-22T10:53:27.076Z,6.47
2023-05-22T10:56:02.585Z,5.72
2023-05-22T10:58:31.973Z,5.38
2023-05-22T11:01:14.882Z,5.47
2023-05-22T11:04:07.165Z,5.18
2023-05-22T11:06:43.804Z,5.32
2023-05-22T11:09:48.986Z,5.85
2023-05-22T11:12:27.780Z,5.32
2023-05-22T11:15:03.325Z,6.05
2023-05-22T11:17:40.376Z,6.38
2023-05-22T11:20:25.903Z,5.22
2023-05-22T11:23:05.746Z,5.07
2023-05-22T11:25:35.244Z,6.22
2023-05-22T11:28:06.766Z,5.47
2023-05-22T11:30:34.910Z,5.32
2023-05-22T11:33:02.688Z,4.78
2023-05-22T11:35:30.007Z,5.32
2023-05-22T11:37:57.236Z,4.85
2023-05-22T11:40:29.681Z,5.15
2023-05-22T11:42:57.111Z,5.25
2023-05-22T11:45:24.619Z,5.22
2023-05-22T11:47:52.080Z,5.78
2023-05-22T11:52:49.470Z,4.70
2023-05-22T11:55:16.370Z,5.03
2023-05-22T11:57:44.396Z,5.25
2023-05-22T12:00:12.206Z,6.00
2023-05-22T12:02:44.930Z,5.20
2023-05-22T12:05:12.166Z,5.00
2023-05-22T12:07:39.292Z,5.40
2023-05-22T12:10:07.611Z,5.30
2023-05-22T12:12:34.644Z,4.72
2023-05-22T12:15:01.560Z,5.28
2023-05-22T12:17:29.554Z,4.68
2023-05-22T12:19:58.065Z,5.35
2023-05-22T12:22:26.674Z,4.90
2023-05-22T12:24:53.637Z,4.78
2023-05-22T12:27:20.590Z,5.63
2023-05-22T12:29:47.550Z,5.50
2023-05-22T12:32:14.575Z,5.75
2023-05-22T12:34:46.917Z,5.57
2023-05-22T12:37:26.127Z,4.78
2023-05-22T12:40:01.698Z,5.32
2023-05-22T12:42:29.459Z,5.43
2023-05-22T12:44:58.383Z,5.70
2023-05-22T12:47:26.157Z,5.88
2023-05-22T12:49:53.569Z,5.38
2023-05-22T12:52:20.591Z,4.57
2023-05-22T12:54:47.550Z,4.57
2023-05-22T12:57:14.613Z,3.75
2023-05-22T12:59:41.517Z,3.90
2023-05-22T13:02:08.680Z,3.92
2023-05-22T13:04:36.245Z,4.40
2023-05-22T13:07:03.232Z,4.18
2023-05-22T13:09:30.981Z,4.32
2023-05-22T13:11:57.974Z,6.28
2023-05-22T13:15:38.807Z,6.30
2023-05-22T13:18:06.121Z,4.10
2023-05-22T13:20:33.179Z,4.15
2023-05-22T13:23:00.127Z,5.05
2023-05-22T13:25:27.084Z,5.13
2023-05-22T13:27:54.105Z,4.85
2023-05-22T13:30:21.086Z,5.55
2023-05-22T13:32:48.163Z,4.80
2023-05-22T13:35:15.225Z,4.85
2023-05-22T13:37:42.210Z,4.38
2023-05-22T13:40:10.221Z,6.10
2023-05-22T13:42:38.056Z,5.35
2023-05-22T13:45:06.391Z,4.93
2023-05-22T13:47:33.455Z,4.28
2023-05-22T13:50:00.545Z,4.95
2023-05-22T13:52:28.007Z,4.32
2023-05-22T13:54:56.303Z,4.70
2023-05-22T13:57:23.226Z,4.50
2023-05-22T13:59:50.196Z,4.32
2023-05-22T14:02:19.844Z,4.88
2023-05-22T14:04:48.792Z,4.78
2023-05-22T14:07:16.152Z,4.78
2023-05-22T14:09:43.204Z,4.35
2023-05-22T14:12:10.196Z,4.18
2023-05-22T14:14:37.074Z,4.07
2023-05-22T14:17:08.641Z,4.25
2023-05-22T14:19:36.418Z,4.40
2023-05-22T14:22:03.934Z,4.07
2023-05-22T14:24:30.942Z,4.38
2023-05-22T14:26:58.381Z,3.92
2023-05-22T14:29:26.111Z,3.15
2023-05-22T14:32:04.375Z,4.10
2023-05-22T14:34:31.877Z,4.20
2023-05-22T14:36:58.954Z,4.45
2023-05-22T14:39:26.619Z,4.28
2023-05-22T14:41:54.293Z,3.50
2023-05-22T14:44:22.798Z,4.28
2023-05-22T14:46:51.347Z,4.78
2023-05-22T14:49:18.393Z,4.80
2023-05-22T14:51:48.238Z,5.32
2023-05-22T14:54:19.241Z,5.50
2023-05-22T14:56:46.853Z,4.80
2023-05-22T14:59:14.437Z,5.43
2023-05-22T15:01:41.724Z,4.93
2023-05-22T15:04:09.220Z,4.22
2023-05-22T15:06:36.400Z,4.68
2023-05-22T15:09:03.693Z,4.78
2023-05-22T15:11:30.641Z,5.03
2023-05-22T15:13:59.379Z,4.85
2023-05-22T15:16:27.934Z,4.30
2023-05-22T15:18:55.442Z,4.30
2023-05-22T15:21:22.847Z,3.17
2023-05-22T15:23:49.943Z,4.07
2023-05-22T15:26:16.917Z,4.00
2023-05-22T15:28:43.915Z,4.60
2023-05-22T15:31:10.984Z,3.90
2023-05-22T15:33:39.283Z,4.72
2023-05-22T15:36:07.133Z,4.13
2023-05-22T15:38:34.293Z,4.50
2023-05-22T15:41:01.228Z,3.95
2023-05-22T15:43:28.227Z,4.28
2023-05-22T15:45:55.340Z,4.53
2023-05-22T15:48:22.283Z,4.20
2023-05-22T15:50:49.174Z,4.30
2023-05-22T15:53:16.180Z,3.80
2023-05-22T15:55:43.093Z,4.05
2023-05-22T15:58:10.118Z,4.03
2023-05-22T16:00:41.326Z,4.78
2023-05-22T16:03:09.143Z,4.57
2023-05-22T16:05:39.002Z,4.72
2023-05-22T16:08:07.753Z,4.70
2023-05-22T16:10:34.775Z,4.47
2023-05-22T16:13:05.270Z,5.00
2023-05-22T16:15:32.542Z,4.55
2023-05-22T16:17:59.524Z,4.68
2023-05-22T16:20:26.623Z,4.40
2023-05-22T16:22:53.658Z,4.60
2023-05-22T16:25:20.668Z,4.22
2023-05-22T16:27:47.685Z,4.28
2023-05-22T16:30:19.154Z,4.85
2023-05-22T16:32:47.052Z,4.88
2023-05-22T16:35:16.769Z,5.55
2023-05-22T16:37:43.747Z,4.88
2023-05-22T16:40:11.266Z,4.78
2023-05-22T16:42:38.548Z,5.53
2023-05-22T16:45:06.784Z,5.03
2023-05-22T16:47:33.858Z,5.50
2023-05-22T16:50:01.069Z,5.45
2023-05-22T16:52:28.536Z,4.57
2023-05-22T16:54:55.531Z,5.68
2023-05-22T16:57:22.603Z,4.68
2023-05-22T16:59:50.653Z,4.95
2023-05-22T17:02:17.833Z,5.38
2023-05-22T17:04:44.777Z,5.15
2023-05-22T17:07:11.698Z,5.40
2023-05-22T17:09:38.662Z,4.80
2023-05-22T17:12:06.235Z,4.50
2023-05-22T17:14:34.549Z,5.40
2023-05-22T17:17:01.478Z,4.53
2023-05-22T17:19:28.454Z,5.10
2023-05-22T17:21:56.845Z,6.07
2023-05-22T17:24:23.849Z,6.18
2023-05-22T17:26:50.789Z,4.93
2023-05-22T17:29:17.767Z,5.78
2023-05-22T17:31:44.816Z,5.47
2023-05-22T17:34:11.752Z,5.10
2023-05-22T17:36:38.645Z,5.38
2023-05-22T17:39:05.691Z,6.07
2023-05-22T17:41:32.737Z,4.82
2023-05-22T17:44:01.600Z,5.40
2023-05-22T17:46:28.627Z,4.70
2023-05-22T17:48:55.651Z,5.57
2023-05-22T17:51:22.933Z,5.85
2023-05-22T17:53:50.338Z,5.18
2023-05-22T17:56:17.439Z,5.82
2023-05-22T17:58:44.279Z,5.25
2023-05-22T18:01:11.229Z,5.28
2023-05-22T18:03:38.206Z,5.00
2023-05-22T18:06:05.719Z,6.20
2023-05-22T18:08:32.632Z,5.40
2023-05-22T18:10:59.532Z,6.03
2023-05-22T18:13:26.917Z,5.38
2023-05-22T18:15:54.429Z,6.43
2023-05-22T18:18:22.797Z,5.80
2023-05-22T18:20:50.173Z,5.78
2023-05-22T18:23:17.155Z,7.40
2023-05-22T18:25:44.026Z,6.60
2023-05-22T18:28:10.957Z,5.72
2023-05-22T18:30:38.047Z,5.57
2023-05-22T18:33:05.071Z,6.25
2023-05-22T18:35:32.064Z,6.57
2023-05-22T18:38:00.372Z,6.57
2023-05-22T18:40:27.299Z,5.90
2023-05-22T18:42:54.167Z,5.70
2023-05-22T18:45:21.132Z,6.78
2023-05-22T18:47:48.108Z,6.60
2023-05-22T18:50:16.274Z,5.95
2023-05-22T18:52:43.166Z,5.82
2023-05-22T18:55:10.557Z,5.57
2023-05-22T18:57:37.429Z,6.40
2023-05-22T19:00:05.451Z,6.15
2023-05-22T19:02:32.385Z,5.50
2023-05-22T19:04:59.434Z,5.60
2023-05-22T19:07:26.466Z,5.95
2023-05-22T19:09:53.395Z,6.32
2023-05-22T19:12:20.327Z,6.30
2023-05-22T19:14:48.548Z,5.93
2023-05-22T19:17:16.172Z,6.57
2023-05-22T19:19:43.109Z,5.43
2023-05-22T19:22:09.960Z,6.95
2023-05-22T19:24:36.939Z,6.68
2023-05-22T19:27:04.290Z,8.75
2023-05-22T19:29:31.140Z,7.60
2023-05-22T19:31:58.016Z,6.38
2023-05-22T19:34:24.855Z,6.68
2023-05-22T19:36:52.382Z,6.75
2023-05-22T19:39:19.258Z,5.60
2023-05-22T19:41:47.594Z,5.82
2023-05-22T19:44:14.449Z,6.82
2023-05-22T19:46:41.380Z,6.50
2023-05-22T19:49:08.373Z,6.30
2023-05-22T19:51:35.284Z,6.72
2023-05-22T19:54:02.154Z,6.90
2023-05-22T19:56:30.380Z,6.50
2023-05-22T19:58:57.385Z,6.13
2023-05-22T20:01:24.298Z,6.68
2023-05-22T20:03:51.342Z,6.35
2023-05-22T20:06:18.826Z,6.22
2023-05-22T20:08:46.278Z,7.13
2023-05-22T20:11:13.184Z,6.68
2023-05-22T20:13:40.202Z,6.22
2023-05-22T20:16:12.017Z,6.35
2023-05-22T20:18:41.278Z,6.00
2023-05-22T20:21:08.404Z,6.65
2023-05-22T20:23:35.316Z,6.65
2023-05-22T20:26:02.167Z,6.70
2023-05-22T20:28:29.080Z,6.75
2023-05-22T20:30:56.082Z,6.68
2023-05-22T20:33:23.409Z,6.72
2023-05-22T20:35:52.818Z,7.45
2023-05-22T20:38:20.201Z,6.03
2023-05-22T20:40:47.795Z,6.10
2023-05-22T20:43:14.942Z,6.75
2023-05-22T20:45:46.012Z,6.40
2023-05-22T20:48:13.647Z,7.18
2023-05-22T20:50:42.281Z,6.93
2023-05-22T20:53:09.251Z,5.85
2023-05-22T20:55:36.362Z,6.45
2023-05-22T20:58:03.243Z,6.85
2023-05-22T21:00:30.128Z,7.32
2023-05-22T21:02:58.409Z,6.85
2023-05-22T21:05:25.888Z,7.40
2023-05-22T21:07:52.784Z,6.43
2023-05-22T21:10:19.641Z,6.43
2023-05-22T21:12:46.633Z,6.93
2023-05-22T21:15:13.530Z,6.05
2023-05-22T21:17:40.551Z,6.63
2023-05-22T21:20:08.321Z,6.70
2023-05-22T21:22:35.230Z,7.18
2023-05-22T21:25:02.098Z,6.57
2023-05-22T21:27:28.983Z,7.25
2023-05-22T21:29:55.862Z,6.20
2023-05-22T21:32:22.752Z,7.20
2023-05-22T21:34:49.668Z,6.88
2023-05-22T21:37:16.523Z,7.85
2023-05-22T21:39:43.389Z,6.15
2023-05-22T21:42:10.464Z,7.20
2023-05-22T21:44:37.725Z,5.97
2023-05-22T21:47:04.873Z,7.47
2023-05-22T21:49:31.854Z,7.15
2023-05-22T21:51:59.075Z,6.70
2023-05-22T21:54:25.946Z,6.80
2023-05-22T21:56:52.832Z,6.57
2023-05-22T21:59:19.721Z,6.90
2023-05-22T22:01:46.626Z,6.40
2023-05-22T22:04:13.556Z,7.60
2023-05-22T22:06:40.490Z,6.75
2023-05-22T22:09:07.514Z,6.57
2023-05-22T22:11:34.381Z,6.25
2023-05-22T22:14:01.287Z,6.65
2023-05-22T22:16:28.725Z,6.25
2023-05-22T22:18:56.175Z,7.07
2023-05-22T22:21:23.214Z,6.40
2023-05-22T22:23:50.073Z,6.93
2023-05-22T22:26:17.267Z,6.45
2023-05-22T22:28:44.107Z,7.53
2023-05-22T22:31:11.471Z,6.88
2023-05-22T22:33:38.331Z,6.88
2023-05-22T22:36:05.605Z,5.30
2023-05-22T22:38:33.174Z,6.63
2023-05-22T22:41:00.835Z,7.28
2023-05-22T22:43:27.686Z,6.50
2023-05-22T22:45:56.026Z,7.88
2023-05-22T22:48:23.088Z,7.03
2023-05-22T22:50:50.308Z,7.13
2023-05-22T22:53:17.157Z,7.07
2023-05-22T22:55:44.554Z,6.45
2023-05-22T22:58:11.476Z,6.55
2023-05-22T23:00:38.553Z,6.78
2023-05-22T23:03:05.487Z,7.05
2023-05-22T23:05:32.509Z,6.85
2023-05-22T23:08:02.253Z,6.82
2023-05-22T23:10:29.307Z,6.68
2023-05-22T23:12:56.347Z,5.70
2023-05-22T23:15:23.406Z,6.97
2023-05-22T23:17:52.036Z,6.20
2023-05-22T23:20:19.127Z,6.00
2023-05-22T23:22:46.031Z,7.00
2023-05-22T23:25:12.873Z,6.88
2023-05-22T23:27:39.716Z,6.22
2023-05-22T23:30:08.275Z,6.78
2023-05-22T23:32:35.243Z,6.75
2023-05-22T23:35:02.113Z,5.78
2023-05-22T23:37:28.979Z,6.63
2023-05-22T23:39:55.865Z,5.97
2023-05-22T23:42:22.797Z,7.22
2023-05-22T23:44:49.728Z,6.43
2023-05-22T23:47:18.185Z,7.65
2023-05-22T23:49:45.754Z,7.18
2023-05-22T23:52:13.311Z,6.85
2023-05-22T23:54:40.156Z,7.20
2023-05-22T23:57:07.270Z,6.55
2023-05-22T23:59:34.145Z,6.38
